SBNT/NAT METAR and TAF weather

Enter ICAO airport designator
Station Type Date Time Source
SBNT METAR 2020/09/23 03:00 UTC NOAA

SBNT 230300Z 15006KT 9999 FEW023 23/21 Q1016


Station Type Date Time Source
SBNT Decoded METAR 2020/09/23 03:00 UTC NOAA

Natal Aeroporto, Brazil (SBNT) 05-55S 035-15W 49M
Sep 22, 2020 - 11:00 PM EDT / 2020.09.23 0300 UTC
Wind: from the SSE (150 degrees) at 7 MPH (6 KT):0
Visibility: greater than 7 mile(s):0
Sky conditions: mostly clear
Temperature: 73 F (23 C)
Dew Point: 69 F (21 C)
Relative Humidity: 88%
Pressure (altimeter): 30.00 in. Hg (1016 hPa)
ob: SBNT 230300Z 15006KT 9999 FEW023 23/21 Q1016
cycle: 3

Station Type Date Time Source
SBNT TAF 2020/09/23 00:27 UTC NOAA

TAF SBNT 222030Z 2300/2312 11010KT 9999 SCT020 TN25/2309Z TX28/2312Z
BECMG 2301/2303 FEW020
BECMG 2304/2306 12007KT SCT020
BECMG 2309/2311 11015KT BKN022
RMK PHN

Example: see airport list